Time;durP1;ratioP1;P1;durP2;ratioP2;P2;SDS_P1;SDS_P2;PMS_P1;PMS_P2;Temp;Humidity;BMP_temperature;BMP_pressure;BME280_temperature;BME280_humidity;BME280_pressure;Samples;Min_cycle;Max_cycle;Signal;HPM_P1;HPM_P2
2021/12/13 00:01:16;;;;;;;30.13;16.55;;;10.90;97.60;;;;;;4820666;29;20066;-76
2021/12/13 00:04:16;;;;;;;30.42;17.15;;;10.90;97.60;;;;;;4808349;29;20164;-75
2021/12/13 00:06:55;;;;;;;28.23;15.48;;;10.90;97.60;;;;;;4820885;29;20688;-75
2021/12/13 00:09:26;;;;;;;29.10;16.90;;;10.90;97.60;;;;;;4810011;29;20046;-75
2021/12/13 00:11:57;;;;;;;25.00;14.48;;;10.90;97.70;;;;;;4813411;29;20107;-76
2021/12/13 00:14:37;;;;;;;30.27;16.20;;;10.90;97.60;;;;;;4803509;29;20583;-75
2021/12/13 00:17:06;;;;;;;27.00;14.65;;;10.90;97.60;;;;;;4820512;29;20555;-75
2021/12/13 00:19:42;;;;;;;24.85;14.30;;;10.90;97.60;;;;;;4809056;29;20183;-75
2021/12/13 00:22:15;;;;;;;25.88;15.52;;;10.90;97.70;;;;;;4823255;29;20121;-76
2021/12/13 00:24:44;;;;;;;28.80;16.73;;;10.90;97.70;;;;;;4805153;29;20514;-75
2021/12/13 00:27:13;;;;;;;30.40;16.45;;;10.90;97.70;;;;;;4804518;29;20137;-76
2021/12/13 00:30:10;;;;;;;27.45;15.85;;;10.80;97.70;;;;;;4822791;29;20054;-75
2021/12/13 00:32:56;;;;;;;25.95;15.20;;;10.90;97.70;;;;;;4807650;29;20755;-75
2021/12/13 00:35:38;;;;;;;28.23;16.50;;;10.90;97.70;;;;;;4819615;29;20111;-75
2021/12/13 00:38:08;;;;;;;29.35;16.05;;;10.80;97.70;;;;;;4806051;29;20698;-75
2021/12/13 00:40:41;;;;;;;28.85;15.23;;;10.80;97.70;;;;;;4819640;29;20050;-75
2021/12/13 00:43:32;;;;;;;27.67;15.70;;;10.80;97.70;;;;;;4806349;29;20088;-74
2021/12/13 00:46:06;;;;;;;23.48;13.77;;;10.80;97.70;;;;;;4814006;29;20459;-76
2021/12/13 00:48:36;;;;;;;22.23;13.40;;;10.80;97.70;;;;;;4810663;29;20633;-75
2021/12/13 00:51:16;;;;;;;26.65;13.35;;;10.80;97.70;;;;;;4807633;29;20475;-75
2021/12/13 00:53:47;;;;;;;25.45;13.55;;;10.80;97.70;;;;;;4806809;29;20071;-75
2021/12/13 00:56:59;;;;;;;25.05;13.90;;;10.80;97.70;;;;;;4806707;29;20520;-76
2021/12/13 00:59:36;;;;;;;25.67;14.40;;;10.80;97.70;;;;;;4807930;29;20051;-76
2021/12/13 01:02:11;;;;;;;24.50;13.82;;;10.70;97.70;;;;;;4824395;29;20046;-76
2021/12/13 01:05:00;;;;;;;20.92;12.20;;;10.80;97.70;;;;;;4808043;29;20130;-76
2021/12/13 01:07:33;;;;;;;23.05;12.82;;;10.70;97.70;;;;;;4807811;29;20116;-76
2021/12/13 01:10:38;;;;;;;20.27;11.98;;;10.70;97.70;;;;;;4806772;29;20073;-75
2021/12/13 01:13:09;;;;;;;21.77;11.73;;;10.70;97.70;;;;;;4807115;29;20054;-75
2021/12/13 01:15:48;;;;;;;18.08;9.77;;;10.70;97.80;;;;;;4816898;29;20139;-75
2021/12/13 01:19:03;;;;;;;16.27;9.50;;;10.70;97.80;;;;;;4809745;29;20530;-75
2021/12/13 01:21:42;;;;;;;20.80;11.65;;;10.70;97.80;;;;;;4827006;29;20051;-75
2021/12/13 01:24:20;;;;;;;17.42;10.98;;;10.70;97.80;;;;;;4815749;29;20058;-74
2021/12/13 01:26:53;;;;;;;21.80;12.13;;;10.70;97.80;;;;;;4816189;29;20058;-74
2021/12/13 01:29:27;;;;;;;18.98;10.68;;;10.70;97.80;;;;;;4828992;29;20068;-75
2021/12/13 01:32:04;;;;;;;23.75;12.63;;;10.70;98.00;;;;;;4809346;29;20478;-75
2021/12/13 01:34:36;;;;;;;25.08;13.15;;;10.70;97.80;;;;;;4824007;29;20628;-76
2021/12/13 01:37:17;;;;;;;20.45;10.65;;;10.60;97.80;;;;;;4806774;29;20051;-75
2021/12/13 01:39:51;;;;;;;21.13;11.13;;;10.70;97.80;;;;;;4825922;29;20066;-74
2021/12/13 01:42:25;;;;;;;21.27;12.07;;;10.70;97.80;;;;;;4810015;29;20050;-74
2021/12/13 01:44:56;;;;;;;23.70;13.48;;;10.70;97.80;;;;;;4811092;29;20062;-75
2021/12/13 01:47:27;;;;;;;22.05;11.77;;;10.60;97.80;;;;;;4809547;29;20114;-75
2021/12/13 01:50:04;;;;;;;20.40;11.27;;;10.70;97.80;;;;;;4827307;29;20471;-75
2021/12/13 01:52:34;;;;;;;19.25;11.82;;;10.60;98.00;;;;;;4805557;29;20106;-75
2021/12/13 01:55:32;;;;;;;20.50;12.05;;;10.60;97.80;;;;;;4824256;29;20057;-75
2021/12/13 02:01:11;;;;;;;17.48;10.32;;;10.60;97.80;;;;;;4823313;29;20803;-75
2021/12/13 02:03:52;;;;;;;15.13;8.75;;;10.60;97.80;;;;;;4808274;29;20054;-75
2021/12/13 02:06:31;;;;;;;13.98;8.13;;;10.60;97.80;;;;;;4808905;29;20039;-75
2021/12/13 02:09:14;;;;;;;12.13;7.18;;;10.60;97.80;;;;;;4809153;29;20047;-75
2021/12/13 02:11:42;;;;;;;14.52;8.98;;;10.60;97.80;;;;;;4811735;29;20520;-75
2021/12/13 02:14:16;;;;;;;17.45;9.27;;;10.60;97.80;;;;;;4794572;29;20617;-75
2021/12/13 02:19:39;;;;;;;12.18;6.22;;;10.60;97.80;;;;;;4824109;29;20127;-76
2021/12/13 02:22:30;;;;;;;10.38;5.53;;;10.60;97.80;;;;;;4814569;29;20050;-75
2021/12/13 02:25:07;;;;;;;10.55;5.90;;;10.70;97.80;;;;;;4808762;29;20085;-76
2021/12/13 02:27:38;;;;;;;11.00;5.82;;;10.60;97.80;;;;;;4824304;29;20059;-75
2021/12/13 02:30:32;;;;;;;11.43;5.60;;;10.70;97.80;;;;;;4819451;29;20058;-75
2021/12/13 02:33:01;;;;;;;12.90;6.45;;;10.60;97.80;;;;;;4823699;29;20058;-75
2021/12/13 02:35:31;;;;;;;13.25;6.95;;;10.60;97.80;;;;;;4809177;29;20043;-76
2021/12/13 02:37:59;;;;;;;10.27;5.65;;;10.60;97.80;;;;;;4813200;29;20046;-76
2021/12/13 02:40:27;;;;;;;11.80;5.00;;;10.60;97.80;;;;;;4817682;29;20055;-76
2021/12/13 02:42:54;;;;;;;10.23;5.35;;;10.70;97.80;;;;;;4822883;29;20658;-76
2021/12/13 02:45:29;;;;;;;11.63;5.72;;;10.70;97.80;;;;;;4810345;29;20158;-76
2021/12/13 02:48:07;;;;;;;10.70;5.28;;;10.70;97.80;;;;;;4800711;29;20119;-76
2021/12/13 02:50:45;;;;;;;10.35;5.28;;;10.70;97.80;;;;;;4803187;29;20426;-76
2021/12/13 02:53:15;;;;;;;20.20;9.20;;;10.70;97.80;;;;;;4808765;29;20077;-76
2021/12/13 02:55:43;;;;;;;15.43;8.93;;;10.70;97.80;;;;;;4809786;29;20063;-76
2021/12/13 02:58:14;;;;;;;20.25;10.75;;;10.70;97.80;;;;;;4823350;29;20153;-76
2021/12/13 03:00:47;;;;;;;20.58;11.35;;;10.70;97.80;;;;;;4798439;29;20210;-76
2021/12/13 03:03:18;;;;;;;17.73;10.10;;;10.60;97.70;;;;;;4800036;29;21130;-76
2021/12/13 03:05:48;;;;;;;23.40;12.60;;;10.60;97.70;;;;;;4808872;29;20043;-76
2021/12/13 03:08:26;;;;;;;23.92;13.60;;;10.60;97.70;;;;;;4824788;29;20703;-77
2021/12/13 03:11:01;;;;;;;19.23;10.32;;;10.60;97.70;;;;;;4822416;29;20057;-76
2021/12/13 03:13:31;;;;;;;17.88;9.85;;;10.60;97.70;;;;;;4823406;29;20520;-76
2021/12/13 03:16:07;;;;;;;13.80;8.05;;;10.60;97.80;;;;;;4807570;29;20590;-76
2021/12/13 03:18:48;;;;;;;18.73;10.32;;;10.60;97.80;;;;;;4802313;29;20065;-76
2021/12/13 03:21:44;;;;;;;20.55;11.40;;;10.60;97.80;;;;;;4808316;29;20129;-76
2021/12/13 03:24:29;;;;;;;17.25;10.10;;;10.60;97.80;;;;;;4813080;29;20080;-75
2021/12/13 03:26:58;;;;;;;18.67;9.50;;;10.60;97.80;;;;;;4811644;29;20050;-76
2021/12/13 03:29:52;;;;;;;16.27;8.73;;;10.50;97.80;;;;;;4821968;29;20149;-76
2021/12/13 03:32:21;;;;;;;14.93;8.23;;;10.60;97.80;;;;;;4809035;29;20059;-76
2021/12/13 03:35:08;;;;;;;14.85;7.70;;;10.50;97.80;;;;;;4810327;29;20103;-76
2021/12/13 03:37:37;;;;;;;13.48;8.30;;;10.50;97.80;;;;;;4807044;29;20043;-76
2021/12/13 03:40:19;;;;;;;12.70;7.05;;;10.50;97.70;;;;;;4808225;29;20071;-76
2021/12/13 03:42:56;;;;;;;16.02;8.15;;;10.50;98.00;;;;;;4808690;29;20082;-76
2021/12/13 03:45:36;;;;;;;12.30;6.72;;;10.50;97.70;;;;;;4790870;29;20069;-76
2021/12/13 03:48:06;;;;;;;12.43;6.95;;;10.50;97.80;;;;;;4805913;29;20046;-76
2021/12/13 03:50:37;;;;;;;10.30;6.05;;;10.50;97.80;;;;;;4822293;29;20075;-77
2021/12/13 03:53:19;;;;;;;13.02;7.65;;;10.50;97.80;;;;;;4801033;29;20110;-76
2021/12/13 03:55:50;;;;;;;11.45;6.15;;;10.50;97.80;;;;;;4822389;29;20067;-76
2021/12/13 03:58:22;;;;;;;9.95;5.43;;;10.50;97.80;;;;;;4806578;29;20050;-76
2021/12/13 04:00:56;;;;;;;12.43;6.55;;;10.40;97.70;;;;;;4808366;29;20112;-77
2021/12/13 04:03:25;;;;;;;10.10;5.13;;;10.50;97.80;;;;;;4823199;29;21369;-76
2021/12/13 04:05:54;;;;;;;8.23;4.97;;;10.40;97.70;;;;;;4809003;29;20057;-77
2021/12/13 04:08:22;;;;;;;9.80;5.00;;;10.40;97.80;;;;;;4821637;29;20047;-77
2021/12/13 04:11:14;;;;;;;8.45;4.45;;;10.40;97.70;;;;;;4791289;29;20051;-76
2021/12/13 04:13:49;;;;;;;9.43;5.18;;;10.40;97.70;;;;;;4807689;29;20051;-76
2021/12/13 04:16:46;;;;;;;8.15;4.88;;;10.40;97.70;;;;;;4808039;29;20054;-76
2021/12/13 04:19:22;;;;;;;7.15;4.38;;;10.40;97.80;;;;;;4806101;29;20054;-76
2021/12/13 04:21:52;;;;;;;8.30;4.30;;;10.40;97.80;;;;;;4821554;29;20061;-76
2021/12/13 04:24:42;;;;;;;7.63;3.97;;;10.30;97.70;;;;;;4806756;29;20083;-76
2021/12/13 04:27:34;;;;;;;7.63;4.63;;;10.40;97.70;;;;;;4818788;29;20051;-76
2021/12/13 04:30:21;;;;;;;6.28;3.47;;;10.40;97.70;;;;;;4826036;29;20050;-76
2021/12/13 04:33:11;;;;;;;8.10;4.25;;;10.40;97.80;;;;;;4809265;29;20046;-75
2021/12/13 04:35:41;;;;;;;8.15;4.30;;;10.40;97.80;;;;;;4814383;29;20042;-76
2021/12/13 04:38:09;;;;;;;9.95;5.75;;;10.30;97.70;;;;;;4803864;29;20059;-76
2021/12/13 04:40:40;;;;;;;7.38;4.00;;;10.30;97.70;;;;;;4802972;29;20090;-76
2021/12/13 04:43:15;;;;;;;8.02;3.70;;;10.30;97.70;;;;;;4808356;29;20054;-76
2021/12/13 04:45:52;;;;;;;7.45;3.67;;;10.30;97.70;;;;;;4822291;29;20042;-75
2021/12/13 04:48:24;;;;;;;11.40;4.70;;;10.30;97.70;;;;;;4809026;29;20062;-76
2021/12/13 04:51:05;;;;;;;8.55;4.10;;;10.30;97.70;;;;;;4823999;29;20145;-76
2021/12/13 04:53:39;;;;;;;7.57;4.38;;;10.30;97.70;;;;;;4823350;29;20055;-76
2021/12/13 04:56:10;;;;;;;10.25;5.20;;;10.30;97.70;;;;;;4816931;29;20389;-75
2021/12/13 04:58:42;;;;;;;7.90;3.83;;;10.30;97.70;;;;;;4795505;29;20050;-75
2021/12/13 05:01:12;;;;;;;12.00;5.20;;;10.30;97.70;;;;;;4803154;29;20491;-75
2021/12/13 05:03:52;;;;;;;12.68;5.85;;;10.30;97.70;;;;;;4809751;29;20054;-75
2021/12/13 05:06:26;;;;;;;10.90;6.22;;;10.30;97.70;;;;;;4817757;29;20050;-76
2021/12/13 05:08:58;;;;;;;10.68;5.05;;;10.30;97.70;;;;;;4822976;29;21294;-76
2021/12/13 05:11:49;;;;;;;9.37;4.90;;;10.30;97.70;;;;;;4826417;29;20531;-76
2021/12/13 05:14:27;;;;;;;9.65;4.63;;;10.30;97.70;;;;;;4809422;29;20308;-77
2021/12/13 05:16:57;;;;;;;10.60;5.53;;;10.30;97.70;;;;;;4820036;29;20050;-76
2021/12/13 05:19:32;;;;;;;9.80;4.68;;;10.30;97.70;;;;;;4827008;29;20062;-75
2021/12/13 05:22:01;;;;;;;10.95;5.07;;;10.30;97.70;;;;;;4808984;29;20076;-76
2021/12/13 05:24:31;;;;;;;12.48;5.78;;;10.30;97.70;;;;;;4822949;29;20161;-78
2021/12/13 05:27:12;;;;;;;11.60;6.22;;;10.30;97.70;;;;;;4825960;29;20054;-77
2021/12/13 05:29:47;;;;;;;9.57;4.97;;;10.20;97.60;;;;;;4812309;29;20039;-75
2021/12/13 05:32:30;;;;;;;10.77;5.35;;;10.30;97.70;;;;;;4824890;29;20058;-76
2021/12/13 05:35:04;;;;;;;10.65;5.00;;;10.30;97.70;;;;;;4817248;29;20112;-77
2021/12/13 05:37:43;;;;;;;12.95;6.60;;;10.20;97.70;;;;;;4816963;29;20066;-76
2021/12/13 05:40:15;;;;;;;13.10;7.18;;;10.30;97.70;;;;;;4809372;29;20059;-76
2021/12/13 05:42:53;;;;;;;12.55;6.45;;;10.20;97.60;;;;;;4807114;29;20073;-76
2021/12/13 05:45:38;;;;;;;13.32;7.03;;;10.20;97.60;;;;;;4808151;29;20055;-76
2021/12/13 05:48:12;;;;;;;11.75;5.43;;;10.20;97.60;;;;;;4810976;29;20054;-76
2021/12/13 05:50:59;;;;;;;11.95;5.95;;;10.20;97.60;;;;;;4807094;29;20059;-76
2021/12/13 05:53:35;;;;;;;13.43;6.72;;;10.20;97.60;;;;;;4821852;29;20453;-76
2021/12/13 05:56:12;;;;;;;12.68;6.32;;;10.20;97.60;;;;;;4806696;29;20082;-76
2021/12/13 05:59:07;;;;;;;10.65;5.25;;;10.20;97.60;;;;;;4810418;29;20604;-76
2021/12/13 06:02:00;;;;;;;8.10;4.22;;;10.20;97.60;;;;;;4821903;29;20101;-77
2021/12/13 06:04:33;;;;;;;10.63;4.90;;;10.20;97.60;;;;;;4825881;29;20046;-77
2021/12/13 06:07:10;;;;;;;8.68;3.97;;;10.20;97.60;;;;;;4808890;29;20143;-76
2021/12/13 06:09:40;;;;;;;9.52;4.85;;;10.20;97.60;;;;;;4810248;29;20050;-76
2021/12/13 06:12:10;;;;;;;10.43;5.88;;;10.20;97.60;;;;;;4824850;29;20065;-76
2021/12/13 06:14:38;;;;;;;11.48;5.43;;;10.20;97.60;;;;;;4807177;29;20496;-76
2021/12/13 06:17:10;;;;;;;9.02;4.55;;;10.20;97.60;;;;;;4811738;29;20061;-76
2021/12/13 06:19:56;;;;;;;10.90;4.57;;;10.20;97.60;;;;;;4817527;29;20055;-80
2021/12/13 06:22:28;;;;;;;9.95;4.32;;;10.20;97.60;;;;;;4826329;29;20106;-79
2021/12/13 06:25:06;;;;;;;8.25;3.63;;;10.20;97.60;;;;;;4806485;29;20042;-79
2021/12/13 06:27:48;;;;;;;9.23;4.20;;;10.20;97.60;;;;;;4810221;29;20187;-78
2021/12/13 06:30:31;;;;;;;8.13;4.07;;;10.20;97.60;;;;;;4825182;29;20469;-78
2021/12/13 06:33:06;;;;;;;8.60;3.50;;;10.20;97.60;;;;;;4824679;29;20074;-76
2021/12/13 06:35:47;;;;;;;9.68;3.97;;;10.20;97.60;;;;;;4805985;29;20314;-77
2021/12/13 06:38:20;;;;;;;9.70;4.10;;;10.20;97.60;;;;;;4822738;29;20103;-79
2021/12/13 06:40:57;;;;;;;8.77;3.42;;;10.20;97.90;;;;;;4808256;29;20671;-79
2021/12/13 06:43:39;;;;;;;6.63;3.15;;;10.20;97.60;;;;;;4809646;29;20376;-79
2021/12/13 06:46:26;;;;;;;6.10;3.05;;;10.10;97.60;;;;;;4809884;29;20496;-78
2021/12/13 06:49:02;;;;;;;7.75;3.67;;;10.10;97.50;;;;;;4824857;29;20059;-78
2021/12/13 06:51:41;;;;;;;9.70;3.80;;;10.10;97.60;;;;;;4808463;29;20062;-78
2021/12/13 06:54:12;;;;;;;6.18;3.33;;;10.20;97.60;;;;;;4808218;29;20051;-80
2021/12/13 06:56:41;;;;;;;7.43;3.10;;;10.10;97.60;;;;;;4817628;29;20054;-80
2021/12/13 06:59:15;;;;;;;7.90;3.55;;;10.10;97.50;;;;;;4811309;29;20137;-79
2021/12/13 07:01:54;;;;;;;8.52;4.03;;;10.20;97.60;;;;;;4800365;29;20528;-79
2021/12/13 07:04:21;;;;;;;8.57;3.63;;;10.10;97.50;;;;;;4814611;29;20103;-80
2021/12/13 07:06:49;;;;;;;11.48;5.78;;;10.10;97.50;;;;;;4790368;29;20526;-79
2021/12/13 07:09:22;;;;;;;11.93;6.40;;;10.10;97.50;;;;;;4792201;29;20583;-79
2021/12/13 07:11:54;;;;;;;12.07;6.47;;;10.10;97.50;;;;;;4798434;29;20046;-79
2021/12/13 07:14:38;;;;;;;14.43;6.45;;;10.10;97.50;;;;;;4805150;29;20097;-79
2021/12/13 07:17:31;;;;;;;11.23;5.25;;;10.10;97.40;;;;;;4805226;29;20126;-79
2021/12/13 07:19:59;;;;;;;;;;;10.10;97.40;;;;;;4826473;29;20095;-78
2021/12/13 07:22:29;;;;;;;8.65;3.97;;;10.10;97.50;;;;;;4807400;29;19929;-79
2021/12/13 07:25:14;;;;;;;9.00;4.60;;;10.10;97.60;;;;;;4809946;29;20141;-79
2021/12/13 07:27:47;;;;;;;8.57;4.13;;;10.10;97.50;;;;;;4826634;29;20042;-79
2021/12/13 07:30:23;;;;;;;8.15;4.07;;;10.10;97.50;;;;;;4820897;29;20128;-81
2021/12/13 07:32:54;;;;;;;8.40;3.90;;;10.10;97.50;;;;;;4810551;29;20062;-81
2021/12/13 07:35:44;;;;;;;8.18;4.80;;;10.10;97.50;;;;;;4799341;29;20669;-81
2021/12/13 07:38:17;;;;;;;8.23;3.42;;;10.10;97.50;;;;;;4813426;29;20138;-77
2021/12/13 07:40:45;;;;;;;9.10;3.70;;;10.10;97.50;;;;;;4824616;29;20046;-78
2021/12/13 07:43:26;;;;;;;7.43;3.28;;;10.10;97.50;;;;;;4806515;29;20535;-77
2021/12/13 07:45:59;;;;;;;6.30;3.17;;;10.10;97.50;;;;;;4803407;29;20054;-77
2021/12/13 07:48:27;;;;;;;8.02;3.95;;;10.10;97.50;;;;;;4807968;29;20050;-78
2021/12/13 07:50:57;;;;;;;7.20;3.45;;;10.10;97.50;;;;;;4817489;29;20099;-77
2021/12/13 07:53:27;;;;;;;8.48;4.32;;;10.10;97.40;;;;;;4806107;29;20046;-77
2021/12/13 07:55:54;;;;;;;9.18;4.47;;;10.10;97.40;;;;;;4811448;29;20054;-75
2021/12/13 07:58:41;;;;;;;9.60;4.15;;;10.10;97.40;;;;;;4791193;29;20469;-76
2021/12/13 08:01:24;;;;;;;8.93;4.05;;;10.20;97.40;;;;;;4806525;29;20487;-76
2021/12/13 08:04:15;;;;;;;6.57;3.05;;;10.10;97.40;;;;;;4817551;29;20835;-77
2021/12/13 08:06:57;;;;;;;9.65;4.28;;;10.10;97.40;;;;;;4806905;29;20043;-76
2021/12/13 08:09:28;;;;;;;8.05;3.45;;;10.10;97.40;;;;;;4808072;29;20804;-76
2021/12/13 08:12:00;;;;;;;9.23;4.03;;;10.10;97.40;;;;;;4821636;29;20046;-76
2021/12/13 08:14:35;;;;;;;6.35;2.85;;;10.10;97.40;;;;;;4819832;29;20047;-76
2021/12/13 08:17:29;;;;;;;5.88;3.42;;;10.10;97.40;;;;;;4805101;29;20793;-76
2021/12/13 08:20:06;;;;;;;8.18;4.30;;;10.10;97.40;;;;;;4808502;29;20058;-76
2021/12/13 08:22:34;;;;;;;11.85;6.63;;;10.10;97.40;;;;;;4822740;29;20520;-75
2021/12/13 08:25:08;;;;;;;10.70;6.10;;;10.10;97.30;;;;;;4797334;29;20082;-78
2021/12/13 08:27:41;;;;;;;11.13;5.53;;;10.10;97.30;;;;;;4810692;29;20054;-76
2021/12/13 08:30:28;;;;;;;11.02;5.60;;;10.10;97.30;;;;;;4811201;29;20050;-76
2021/12/13 08:33:01;;;;;;;8.50;4.85;;;10.10;97.20;;;;;;4818374;29;20114;-76
2021/12/13 08:35:51;;;;;;;11.27;4.85;;;10.10;97.30;;;;;;4809650;29;20066;-76
2021/12/13 08:38:34;;;;;;;8.68;4.05;;;10.10;97.20;;;;;;4812045;29;20495;-76
2021/12/13 08:41:18;;;;;;;9.02;3.67;;;10.10;97.30;;;;;;4823266;29;20146;-76
2021/12/13 08:43:51;;;;;;;6.28;3.20;;;10.20;97.30;;;;;;4801300;29;20062;-76
2021/12/13 08:46:58;;;;;;;8.48;4.15;;;10.20;97.30;;;;;;4827666;29;20150;-77
2021/12/13 08:49:37;;;;;;;7.57;4.15;;;10.20;97.20;;;;;;4814175;29;20054;-76
2021/12/13 08:52:14;;;;;;;10.63;5.25;;;10.20;97.20;;;;;;4811021;29;20141;-76
2021/12/13 08:54:52;;;;;;;9.80;4.90;;;10.20;97.20;;;;;;4806878;29;20051;-76
2021/12/13 08:57:41;;;;;;;13.10;6.45;;;10.20;97.20;;;;;;4828488;29;20065;-76
2021/12/13 09:00:12;;;;;;;8.77;4.90;;;10.20;97.10;;;;;;4823767;29;20050;-76
2021/12/13 09:03:10;;;;;;;11.35;5.55;;;10.20;97.10;;;;;;4807249;29;20066;-75
2021/12/13 09:05:41;;;;;;;9.57;4.78;;;10.20;97.10;;;;;;4807620;29;20043;-75
2021/12/13 09:08:14;;;;;;;8.30;4.20;;;10.20;97.10;;;;;;4809127;29;20042;-76
2021/12/13 09:10:53;;;;;;;9.88;5.38;;;10.20;97.10;;;;;;4808589;29;20050;-75
2021/12/13 09:13:41;;;;;;;11.40;4.90;;;10.20;97.10;;;;;;4808732;29;20047;-75
2021/12/13 09:16:10;;;;;;;10.88;5.05;;;10.20;97.00;;;;;;4821670;29;20066;-75
2021/12/13 09:18:38;;;;;;;9.15;4.50;;;10.20;97.10;;;;;;4813556;29;20133;-76
2021/12/13 09:21:07;;;;;;;8.73;4.15;;;10.20;97.10;;;;;;4825733;29;20082;-77
2021/12/13 09:23:43;;;;;;;6.80;3.67;;;10.20;97.10;;;;;;4807610;29;20121;-77
2021/12/13 09:26:16;;;;;;;7.20;3.72;;;10.30;97.10;;;;;;4824029;29;20078;-77
2021/12/13 09:28:52;;;;;;;6.45;3.55;;;10.30;97.10;;;;;;4798784;29;20111;-77
2021/12/13 09:31:25;;;;;;;4.88;2.10;;;10.30;97.10;;;;;;4809913;29;20058;-76
2021/12/13 09:34:13;;;;;;;5.43;2.83;;;10.30;97.10;;;;;;4809524;29;20055;-76
2021/12/13 09:36:43;;;;;;;5.03;2.58;;;10.40;97.10;;;;;;4820604;29;20078;-76
2021/12/13 09:39:29;;;;;;;5.03;2.33;;;10.40;97.10;;;;;;4810037;29;21300;-76
2021/12/13 09:42:07;;;;;;;4.63;1.98;;;10.40;97.10;;;;;;4823584;29;20154;-76
2021/12/13 09:44:38;;;;;;;5.35;2.47;;;10.40;97.10;;;;;;4824184;29;20050;-76
2021/12/13 09:47:16;;;;;;;5.45;2.47;;;10.40;97.00;;;;;;4808782;29;21193;-76
2021/12/13 09:50:13;;;;;;;6.25;2.70;;;10.40;97.00;;;;;;4800890;29;20058;-76
2021/12/13 09:53:04;;;;;;;8.30;2.92;;;10.40;97.00;;;;;;4823606;29;20047;-77
2021/12/13 09:55:41;;;;;;;5.15;2.20;;;10.40;97.00;;;;;;4810067;29;20074;-76
2021/12/13 09:58:22;;;;;;;4.80;2.25;;;10.40;97.00;;;;;;4824467;29;20531;-76
2021/12/13 10:01:04;;;;;;;6.82;3.00;;;10.40;97.00;;;;;;4807990;29;20059;-76
2021/12/13 10:03:53;;;;;;;5.00;2.17;;;10.40;96.90;;;;;;4809859;29;20058;-76
2021/12/13 10:06:35;;;;;;;6.22;2.45;;;10.40;97.00;;;;;;4815686;29;20099;-77
2021/12/13 10:09:16;;;;;;;4.95;2.25;;;10.40;97.00;;;;;;4821393;29;20073;-76
2021/12/13 10:12:07;;;;;;;6.43;2.70;;;10.40;97.00;;;;;;4801699;29;20057;-75
2021/12/13 10:14:38;;;;;;;5.35;2.50;;;10.40;96.90;;;;;;4810037;29;20050;-75
2021/12/13 10:17:08;;;;;;;5.40;2.60;;;10.40;96.90;;;;;;4801020;29;20058;-76
2021/12/13 10:19:45;;;;;;;4.75;2.17;;;10.40;96.90;;;;;;4808166;29;20058;-76
2021/12/13 10:22:15;;;;;;;5.22;2.67;;;10.40;96.90;;;;;;4823721;29;20051;-76
2021/12/13 10:24:50;;;;;;;6.15;3.25;;;10.40;96.90;;;;;;4815383;29;20043;-76
2021/12/13 10:27:18;;;;;;;5.45;2.45;;;10.40;96.90;;;;;;4807109;29;20063;-76
2021/12/13 10:29:50;;;;;;;5.22;2.60;;;10.40;96.90;;;;;;4820530;29;20515;-76
2021/12/13 10:32:24;;;;;;;5.53;2.38;;;10.40;96.90;;;;;;4821209;29;20050;-74
2021/12/13 10:35:10;;;;;;;4.97;2.42;;;10.50;96.90;;;;;;4805734;29;20431;-75
2021/12/13 10:37:43;;;;;;;4.60;1.98;;;10.50;96.80;;;;;;4814908;29;20062;-74
2021/12/13 10:40:22;;;;;;;4.35;1.42;;;10.50;96.90;;;;;;4822574;29;20835;-75
2021/12/13 10:42:56;;;;;;;6.70;3.40;;;10.50;96.80;;;;;;4808581;29;21359;-75
2021/12/13 10:45:28;;;;;;;5.57;2.63;;;10.50;96.80;;;;;;4804099;29;20043;-75
2021/12/13 10:47:59;;;;;;;5.75;3.13;;;10.50;96.70;;;;;;4823944;29;20051;-76
2021/12/13 10:50:35;;;;;;;6.97;3.45;;;10.50;96.70;;;;;;4823002;29;20067;-75
2021/12/13 10:53:05;;;;;;;6.35;3.17;;;10.50;96.70;;;;;;4808814;29;20081;-75
2021/12/13 10:55:44;;;;;;;5.47;2.78;;;10.50;96.70;;;;;;4809787;29;20572;-76
2021/12/13 10:58:17;;;;;;;5.85;2.90;;;10.60;96.70;;;;;;4807822;29;20495;-76
2021/12/13 11:00:56;;;;;;;5.70;2.80;;;10.60;96.60;;;;;;4808636;29;20050;-76
2021/12/13 11:03:26;;;;;;;5.43;2.72;;;10.60;96.60;;;;;;4809125;29;20088;-77
2021/12/13 11:05:55;;;;;;;7.65;3.90;;;10.60;96.60;;;;;;4821084;29;20062;-77
2021/12/13 11:08:24;;;;;;;5.38;2.78;;;10.60;96.50;;;;;;4824334;29;20062;-76
2021/12/13 11:10:56;;;;;;;7.07;3.30;;;10.60;96.50;;;;;;4809264;29;20111;-76
2021/12/13 11:13:26;;;;;;;8.07;3.55;;;10.60;96.50;;;;;;4806797;29;20128;-76
2021/12/13 11:15:56;;;;;;;6.80;3.47;;;10.70;96.50;;;;;;4821384;29;20050;-76
2021/12/13 11:18:28;;;;;;;5.60;2.85;;;10.60;96.40;;;;;;4815060;29;20046;-77
2021/12/13 11:21:11;;;;;;;5.93;2.88;;;10.60;96.40;;;;;;4810891;29;20093;-76
2021/12/13 11:23:39;;;;;;;7.05;3.50;;;10.60;96.40;;;;;;4822580;29;20539;-80
2021/12/13 11:26:11;;;;;;;4.95;2.22;;;10.60;96.40;;;;;;4808986;29;20054;-78
2021/12/13 11:28:40;;;;;;;;;;;10.60;96.40;;;;;;4819991;29;20082;-80
2021/12/13 11:31:52;;;;;;;5.13;2.70;;;10.60;96.40;;;;;;4809674;29;20420;-79
2021/12/13 11:34:57;;;;;;;3.95;2.08;;;10.60;96.40;;;;;;4807444;29;20047;-78
2021/12/13 11:37:45;;;;;;;5.22;2.47;;;10.60;96.40;;;;;;4806653;29;20508;-80
2021/12/13 11:40:50;;;;;;;4.72;1.98;;;10.60;96.40;;;;;;4821000;29;20061;-77
2021/12/13 11:43:46;;;;;;;5.28;2.28;;;10.60;96.40;;;;;;4806157;29;20107;-79
2021/12/13 11:46:16;;;;;;;5.30;2.33;;;10.60;96.40;;;;;;4807780;29;20753;-78
2021/12/13 11:49:21;;;;;;;5.82;2.65;;;10.60;96.40;;;;;;4819708;29;20044;-76
2021/12/13 11:52:11;;;;;;;5.53;2.70;;;10.60;96.30;;;;;;4808450;29;20058;-80
2021/12/13 11:55:12;;;;;;;3.38;1.90;;;10.60;96.40;;;;;;4810489;29;20046;-76
2021/12/13 11:57:51;;;;;;;4.22;2.40;;;10.70;96.40;;;;;;4810975;29;20046;-75
2021/12/13 12:00:37;;;;;;;4.13;1.92;;;10.70;96.40;;;;;;4822093;29;20049;-76
2021/12/13 12:03:26;;;;;;;3.47;1.30;;;10.70;96.30;;;;;;4807366;29;20110;-76
2021/12/13 12:06:18;;;;;;;3.63;1.38;;;10.70;96.40;;;;;;4814664;29;20054;-76
2021/12/13 12:08:57;;;;;;;8.23;2.95;;;10.70;96.30;;;;;;4819238;29;20046;-75
2021/12/13 12:12:11;;;;;;;5.90;3.05;;;10.60;96.30;;;;;;4807501;29;20099;-76
2021/12/13 12:14:38;;;;;;;7.35;3.38;;;10.60;96.20;;;;;;4841636;29;20056;-76
2021/12/13 12:17:07;;;;;;;7.57;3.95;;;10.60;96.20;;;;;;4813281;29;20054;-75
2021/12/13 12:19:40;;;;;;;6.57;3.10;;;10.60;96.20;;;;;;4799661;29;20146;-77
2021/12/13 12:22:09;;;;;;;7.00;3.45;;;10.60;96.20;;;;;;4797886;29;20054;-77
2021/12/13 12:24:42;;;;;;;6.18;2.88;;;10.60;96.20;;;;;;4822980;29;20065;-78
2021/12/13 12:27:16;;;;;;;6.88;3.20;;;10.60;96.20;;;;;;4806763;29;20035;-77
2021/12/13 12:29:48;;;;;;;5.05;2.78;;;10.60;96.10;;;;;;4805013;29;20047;-76
2021/12/13 12:32:20;;;;;;;5.85;2.13;;;10.70;96.20;;;;;;4797072;29;20108;-75
2021/12/13 12:34:56;;;;;;;5.80;2.65;;;10.70;96.20;;;;;;4803899;29;20070;-76
2021/12/13 12:37:49;;;;;;;6.28;2.80;;;10.70;96.10;;;;;;4819566;29;20493;-76
2021/12/13 12:40:43;;;;;;;5.22;2.55;;;10.70;96.10;;;;;;4797694;29;20123;-76
2021/12/13 12:43:22;;;;;;;4.95;2.22;;;10.70;96.10;;;;;;4806168;29;20066;-76
2021/12/13 12:45:57;;;;;;;6.53;3.03;;;10.70;96.00;;;;;;4806087;29;20054;-76
2021/12/13 12:48:31;;;;;;;6.75;3.22;;;10.70;96.00;;;;;;4822443;29;20051;-76
2021/12/13 12:51:17;;;;;;;6.90;3.58;;;10.70;96.00;;;;;;4808193;29;20070;-75
2021/12/13 12:53:48;;;;;;;4.05;2.53;;;10.70;95.90;;;;;;4817820;29;20573;-75
2021/12/13 12:56:18;;;;;;;4.43;2.30;;;10.70;96.00;;;;;;4809714;29;20456;-76
2021/12/13 12:59:12;;;;;;;5.28;2.38;;;10.70;95.90;;;;;;4824201;29;20372;-76
2021/12/13 13:02:04;;;;;;;7.80;3.65;;;10.70;95.90;;;;;;4805362;29;20081;-75
2021/12/13 13:04:33;;;;;;;5.57;3.15;;;10.70;95.90;;;;;;4806019;29;20074;-76
2021/12/13 13:07:11;;;;;;;5.22;2.88;;;10.60;95.90;;;;;;4819176;29;20059;-76
2021/12/13 13:09:38;;;;;;;5.97;3.55;;;10.60;95.90;;;;;;4806452;29;20137;-76
2021/12/13 13:12:08;;;;;;;5.28;2.50;;;10.60;95.90;;;;;;4822987;29;20050;-75
2021/12/13 13:14:44;;;;;;;4.32;2.47;;;10.60;95.90;;;;;;4810748;29;20058;-76
2021/12/13 13:17:11;;;;;;;4.72;2.33;;;10.60;95.90;;;;;;4824541;29;20123;-76
2021/12/13 13:19:45;;;;;;;4.00;1.77;;;10.60;95.90;;;;;;4808160;29;20046;-76
2021/12/13 13:22:33;;;;;;;3.45;1.48;;;10.60;95.90;;;;;;4811517;29;20206;-75
2021/12/13 13:25:45;;;;;;;3.15;1.58;;;10.70;96.00;;;;;;4825324;29;20446;-79
2021/12/13 13:28:20;;;;;;;3.50;1.50;;;10.70;96.00;;;;;;4810894;29;20103;-77
2021/12/13 13:31:00;;;;;;;3.30;1.50;;;10.70;95.90;;;;;;4816911;29;20050;-77
2021/12/13 13:33:34;;;;;;;3.53;1.50;;;10.70;95.90;;;;;;4824380;29;20413;-78
2021/12/13 13:36:04;;;;;;;4.68;2.13;;;10.70;95.90;;;;;;4821425;29;20050;-77
2021/12/13 13:38:31;;;;;;;3.85;1.83;;;10.60;95.90;;;;;;4824277;29;20111;-84
2021/12/13 13:40:59;;;;;;;3.05;1.55;;;10.60;95.90;;;;;;4825558;29;20073;-77